sensor_id;sensor_type;location;lat;lon;timestamp;temperature;humidity
28548;DHT22;68292;49.600;8.746;2023-08-06T00:00:26;23.40;59.70
28548;DHT22;68292;49.600;8.746;2023-08-06T00:02:54;23.40;59.70
28548;DHT22;68292;49.600;8.746;2023-08-06T00:05:24;23.40;59.70
28548;DHT22;68292;49.600;8.746;2023-08-06T00:07:52;23.40;59.70
28548;DHT22;68292;49.600;8.746;2023-08-06T00:10:20;23.40;59.50
28548;DHT22;68292;49.600;8.746;2023-08-06T00:12:48;23.40;59.40
28548;DHT22;68292;49.600;8.746;2023-08-06T00:15:17;23.40;59.30
28548;DHT22;68292;49.600;8.746;2023-08-06T00:17:45;23.40;59.30
28548;DHT22;68292;49.600;8.746;2023-08-06T00:20:14;23.40;59.40
28548;DHT22;68292;49.600;8.746;2023-08-06T00:22:43;23.40;59.40
28548;DHT22;68292;49.600;8.746;2023-08-06T00:25:11;23.30;59.40
28548;DHT22;68292;49.600;8.746;2023-08-06T00:27:39;23.30;59.30
28548;DHT22;68292;49.600;8.746;2023-08-06T00:30:07;23.30;59.30
28548;DHT22;68292;49.600;8.746;2023-08-06T00:32:35;23.30;59.20
28548;DHT22;68292;49.600;8.746;2023-08-06T00:35:04;23.30;59.20
28548;DHT22;68292;49.600;8.746;2023-08-06T00:37:33;23.30;59.20
28548;DHT22;68292;49.600;8.746;2023-08-06T00:40:03;23.30;59.20
28548;DHT22;68292;49.600;8.746;2023-08-06T00:42:34;23.30;59.20
28548;DHT22;68292;49.600;8.746;2023-08-06T00:45:02;23.30;59.30
28548;DHT22;68292;49.600;8.746;2023-08-06T00:47:31;23.30;59.30
28548;DHT22;68292;49.600;8.746;2023-08-06T00:49:59;23.30;59.30
28548;DHT22;68292;49.600;8.746;2023-08-06T00:52:27;23.30;59.40
28548;DHT22;68292;49.600;8.746;2023-08-06T00:54:56;23.30;59.30
28548;DHT22;68292;49.600;8.746;2023-08-06T00:57:25;23.30;59.20
28548;DHT22;68292;49.600;8.746;2023-08-06T00:59:54;23.30;59.10
28548;DHT22;68292;49.600;8.746;2023-08-06T01:02:22;23.30;59.20
28548;DHT22;68292;49.600;8.746;2023-08-06T01:04:50;23.30;59.30
28548;DHT22;68292;49.600;8.746;2023-08-06T01:07:25;23.30;59.30
28548;DHT22;68292;49.600;8.746;2023-08-06T01:10:15;23.30;58.90
28548;DHT22;68292;49.600;8.746;2023-08-06T01:13:02;23.30;58.70
28548;DHT22;68292;49.600;8.746;2023-08-06T01:15:41;23.30;58.60
28548;DHT22;68292;49.600;8.746;2023-08-06T01:18:17;23.30;58.80
28548;DHT22;68292;49.600;8.746;2023-08-06T01:20:47;23.30;58.90
28548;DHT22;68292;49.600;8.746;2023-08-06T01:23:16;23.30;58.80
28548;DHT22;68292;49.600;8.746;2023-08-06T01:25:49;23.30;58.80
28548;DHT22;68292;49.600;8.746;2023-08-06T01:28:34;23.30;58.80
28548;DHT22;68292;49.600;8.746;2023-08-06T01:31:13;23.30;58.60
28548;DHT22;68292;49.600;8.746;2023-08-06T01:33:45;23.30;58.70
28548;DHT22;68292;49.600;8.746;2023-08-06T01:36:17;23.30;58.80
28548;DHT22;68292;49.600;8.746;2023-08-06T01:38:46;23.30;58.80
28548;DHT22;68292;49.600;8.746;2023-08-06T01:41:15;23.30;58.70
28548;DHT22;68292;49.600;8.746;2023-08-06T01:43:43;23.30;58.80
28548;DHT22;68292;49.600;8.746;2023-08-06T01:46:11;23.30;58.60
28548;DHT22;68292;49.600;8.746;2023-08-06T01:48:39;23.30;58.60
28548;DHT22;68292;49.600;8.746;2023-08-06T01:51:07;23.30;58.60
28548;DHT22;68292;49.600;8.746;2023-08-06T01:53:37;23.30;58.70
28548;DHT22;68292;49.600;8.746;2023-08-06T01:56:05;23.30;58.40
28548;DHT22;68292;49.600;8.746;2023-08-06T01:58:33;23.30;58.50
28548;DHT22;68292;49.600;8.746;2023-08-06T02:01:01;23.30;58.40
28548;DHT22;68292;49.600;8.746;2023-08-06T02:03:29;23.30;58.40
28548;DHT22;68292;49.600;8.746;2023-08-06T02:05:57;23.30;58.30
28548;DHT22;68292;49.600;8.746;2023-08-06T02:08:27;23.30;58.20
28548;DHT22;68292;49.600;8.746;2023-08-06T02:10:56;23.30;58.30
28548;DHT22;68292;49.600;8.746;2023-08-06T02:13:26;23.30;58.20
28548;DHT22;68292;49.600;8.746;2023-08-06T02:15:54;23.30;58.40
28548;DHT22;68292;49.600;8.746;2023-08-06T02:18:24;23.30;58.20
28548;DHT22;68292;49.600;8.746;2023-08-06T02:20:56;23.30;58.20
28548;DHT22;68292;49.600;8.746;2023-08-06T02:23:25;23.30;58.20
28548;DHT22;68292;49.600;8.746;2023-08-06T02:25:59;23.30;58.10
28548;DHT22;68292;49.600;8.746;2023-08-06T02:28:28;23.30;57.90
28548;DHT22;68292;49.600;8.746;2023-08-06T02:30:56;23.30;57.90
28548;DHT22;68292;49.600;8.746;2023-08-06T02:33:24;23.30;57.80
28548;DHT22;68292;49.600;8.746;2023-08-06T02:36:01;23.30;57.70
28548;DHT22;68292;49.600;8.746;2023-08-06T02:38:31;23.30;57.50
28548;DHT22;68292;49.600;8.746;2023-08-06T02:41:03;23.30;57.60
28548;DHT22;68292;49.600;8.746;2023-08-06T02:43:32;23.30;57.50
28548;DHT22;68292;49.600;8.746;2023-08-06T02:46:01;23.30;57.50
28548;DHT22;68292;49.600;8.746;2023-08-06T02:48:29;23.30;57.50
28548;DHT22;68292;49.600;8.746;2023-08-06T02:50:58;23.30;57.50
28548;DHT22;68292;49.600;8.746;2023-08-06T02:53:28;23.30;57.50
28548;DHT22;68292;49.600;8.746;2023-08-06T02:55:59;23.30;57.50
28548;DHT22;68292;49.600;8.746;2023-08-06T02:58:37;23.30;57.50
28548;DHT22;68292;49.600;8.746;2023-08-06T03:01:19;23.30;57.40
28548;DHT22;68292;49.600;8.746;2023-08-06T03:03:55;23.30;57.50
28548;DHT22;68292;49.600;8.746;2023-08-06T03:06:29;23.30;57.50
28548;DHT22;68292;49.600;8.746;2023-08-06T03:09:00;23.30;57.50
28548;DHT22;68292;49.600;8.746;2023-08-06T03:11:29;23.30;57.50
28548;DHT22;68292;49.600;8.746;2023-08-06T03:14:05;23.30;57.40
28548;DHT22;68292;49.600;8.746;2023-08-06T03:16:33;23.30;57.50
28548;DHT22;68292;49.600;8.746;2023-08-06T03:19:01;23.30;57.50
28548;DHT22;68292;49.600;8.746;2023-08-06T03:21:29;23.30;58.20
28548;DHT22;68292;49.600;8.746;2023-08-06T03:23:58;23.30;58.20
28548;DHT22;68292;49.600;8.746;2023-08-06T03:26:29;23.30;57.60
28548;DHT22;68292;49.600;8.746;2023-08-06T03:28:57;23.30;57.50
28548;DHT22;68292;49.600;8.746;2023-08-06T03:31:29;23.20;57.50
28548;DHT22;68292;49.600;8.746;2023-08-06T03:33:58;23.30;57.50
28548;DHT22;68292;49.600;8.746;2023-08-06T03:36:29;23.20;58.10
28548;DHT22;68292;49.600;8.746;2023-08-06T03:38:57;23.30;57.50
28548;DHT22;68292;49.600;8.746;2023-08-06T03:41:27;23.20;57.40
28548;DHT22;68292;49.600;8.746;2023-08-06T03:43:55;23.30;57.50
28548;DHT22;68292;49.600;8.746;2023-08-06T03:46:26;23.30;57.50
28548;DHT22;68292;49.600;8.746;2023-08-06T03:48:55;23.20;57.50
28548;DHT22;68292;49.600;8.746;2023-08-06T03:51:25;23.20;57.40
28548;DHT22;68292;49.600;8.746;2023-08-06T03:53:54;23.20;57.50
28548;DHT22;68292;49.600;8.746;2023-08-06T03:56:22;23.20;57.50
28548;DHT22;68292;49.600;8.746;2023-08-06T03:58:50;23.20;57.40
28548;DHT22;68292;49.600;8.746;2023-08-06T04:01:18;23.20;57.40
28548;DHT22;68292;49.600;8.746;2023-08-06T04:03:47;23.20;57.50
28548;DHT22;68292;49.600;8.746;2023-08-06T04:06:17;23.10;57.30
28548;DHT22;68292;49.600;8.746;2023-08-06T04:08:45;23.20;57.30
28548;DHT22;68292;49.600;8.746;2023-08-06T04:11:13;23.10;57.20
28548;DHT22;68292;49.600;8.746;2023-08-06T04:13:42;23.10;57.20
28548;DHT22;68292;49.600;8.746;2023-08-06T04:16:11;23.20;57.20
28548;DHT22;68292;49.600;8.746;2023-08-06T04:18:41;23.10;57.20
28548;DHT22;68292;49.600;8.746;2023-08-06T04:21:09;23.10;57.10
28548;DHT22;68292;49.600;8.746;2023-08-06T04:23:38;23.10;57.10
28548;DHT22;68292;49.600;8.746;2023-08-06T04:26:08;23.10;57.20
28548;DHT22;68292;49.600;8.746;2023-08-06T04:28:37;23.20;57.30
28548;DHT22;68292;49.600;8.746;2023-08-06T04:31:05;23.10;57.30
28548;DHT22;68292;49.600;8.746;2023-08-06T04:33:34;23.10;57.30
28548;DHT22;68292;49.600;8.746;2023-08-06T04:36:07;23.10;57.40
28548;DHT22;68292;49.600;8.746;2023-08-06T04:38:35;23.10;57.50
28548;DHT22;68292;49.600;8.746;2023-08-06T04:41:05;23.10;57.50
28548;DHT22;68292;49.600;8.746;2023-08-06T04:43:34;23.10;57.50
28548;DHT22;68292;49.600;8.746;2023-08-06T04:46:02;23.10;57.60
28548;DHT22;68292;49.600;8.746;2023-08-06T04:48:30;23.10;57.70
28548;DHT22;68292;49.600;8.746;2023-08-06T04:50:58;23.10;57.60
28548;DHT22;68292;49.600;8.746;2023-08-06T04:53:26;23.10;57.70
28548;DHT22;68292;49.600;8.746;2023-08-06T04:55:55;23.10;57.60
28548;DHT22;68292;49.600;8.746;2023-08-06T04:58:24;23.10;57.70
28548;DHT22;68292;49.600;8.746;2023-08-06T05:00:53;23.10;57.70
28548;DHT22;68292;49.600;8.746;2023-08-06T05:03:22;23.00;57.70
28548;DHT22;68292;49.600;8.746;2023-08-06T05:05:50;23.00;57.70
28548;DHT22;68292;49.600;8.746;2023-08-06T05:08:18;23.00;57.70
28548;DHT22;68292;49.600;8.746;2023-08-06T05:10:46;23.00;57.90
28548;DHT22;68292;49.600;8.746;2023-08-06T05:13:14;23.00;57.90
28548;DHT22;68292;49.600;8.746;2023-08-06T05:15:43;23.00;57.90
28548;DHT22;68292;49.600;8.746;2023-08-06T05:18:13;23.00;57.90
28548;DHT22;68292;49.600;8.746;2023-08-06T05:20:42;23.00;57.90
28548;DHT22;68292;49.600;8.746;2023-08-06T05:23:10;23.00;58.00
28548;DHT22;68292;49.600;8.746;2023-08-06T05:25:39;23.00;58.10
28548;DHT22;68292;49.600;8.746;2023-08-06T05:28:07;23.00;57.90
28548;DHT22;68292;49.600;8.746;2023-08-06T05:30:39;23.00;57.90
28548;DHT22;68292;49.600;8.746;2023-08-06T05:33:08;23.00;57.90
28548;DHT22;68292;49.600;8.746;2023-08-06T05:35:36;23.00;57.90
28548;DHT22;68292;49.600;8.746;2023-08-06T05:38:04;23.00;58.00
28548;DHT22;68292;49.600;8.746;2023-08-06T05:40:33;23.00;58.00
28548;DHT22;68292;49.600;8.746;2023-08-06T05:43:01;22.90;58.00
28548;DHT22;68292;49.600;8.746;2023-08-06T05:45:29;22.90;58.10
28548;DHT22;68292;49.600;8.746;2023-08-06T05:47:58;22.90;58.20
28548;DHT22;68292;49.600;8.746;2023-08-06T05:50:27;22.90;58.10
28548;DHT22;68292;49.600;8.746;2023-08-06T05:52:55;22.90;58.10
28548;DHT22;68292;49.600;8.746;2023-08-06T05:55:27;22.90;58.00
28548;DHT22;68292;49.600;8.746;2023-08-06T05:57:55;22.90;58.00
28548;DHT22;68292;49.600;8.746;2023-08-06T06:00:23;22.90;57.90
28548;DHT22;68292;49.600;8.746;2023-08-06T06:02:52;22.90;58.00
28548;DHT22;68292;49.600;8.746;2023-08-06T06:05:20;22.80;58.00
28548;DHT22;68292;49.600;8.746;2023-08-06T06:07:49;22.80;58.10
28548;DHT22;68292;49.600;8.746;2023-08-06T06:10:17;22.80;58.20
28548;DHT22;68292;49.600;8.746;2023-08-06T06:12:45;22.80;58.10
28548;DHT22;68292;49.600;8.746;2023-08-06T06:15:13;22.80;58.10
28548;DHT22;68292;49.600;8.746;2023-08-06T06:17:41;22.80;58.10
28548;DHT22;68292;49.600;8.746;2023-08-06T06:20:10;22.80;58.10
28548;DHT22;68292;49.600;8.746;2023-08-06T06:22:38;22.80;58.10
28548;DHT22;68292;49.600;8.746;2023-08-06T06:25:08;22.80;58.10
28548;DHT22;68292;49.600;8.746;2023-08-06T06:27:37;22.80;58.20
28548;DHT22;68292;49.600;8.746;2023-08-06T06:30:06;22.80;58.10
28548;DHT22;68292;49.600;8.746;2023-08-06T06:32:35;22.80;58.20
28548;DHT22;68292;49.600;8.746;2023-08-06T06:35:03;22.80;58.20
28548;DHT22;68292;49.600;8.746;2023-08-06T06:37:33;22.70;58.30
28548;DHT22;68292;49.600;8.746;2023-08-06T06:40:02;22.70;58.30
28548;DHT22;68292;49.600;8.746;2023-08-06T06:42:31;22.70;58.40
28548;DHT22;68292;49.600;8.746;2023-08-06T06:45:01;22.70;58.40
28548;DHT22;68292;49.600;8.746;2023-08-06T06:47:29;22.70;58.30
28548;DHT22;68292;49.600;8.746;2023-08-06T06:49:57;22.70;58.40
28548;DHT22;68292;49.600;8.746;2023-08-06T06:52:25;22.70;58.50
28548;DHT22;68292;49.600;8.746;2023-08-06T06:54:53;22.70;58.50
28548;DHT22;68292;49.600;8.746;2023-08-06T06:57:21;22.70;58.50
28548;DHT22;68292;49.600;8.746;2023-08-06T06:59:51;22.70;58.60
28548;DHT22;68292;49.600;8.746;2023-08-06T07:02:19;22.70;58.50
28548;DHT22;68292;49.600;8.746;2023-08-06T07:04:47;22.70;58.50
28548;DHT22;68292;49.600;8.746;2023-08-06T07:07:15;22.70;58.50
28548;DHT22;68292;49.600;8.746;2023-08-06T07:09:44;22.70;58.40
28548;DHT22;68292;49.600;8.746;2023-08-06T07:12:12;22.70;58.50
28548;DHT22;68292;49.600;8.746;2023-08-06T07:14:40;22.70;58.50
28548;DHT22;68292;49.600;8.746;2023-08-06T07:17:09;22.70;58.50
28548;DHT22;68292;49.600;8.746;2023-08-06T07:19:37;22.70;58.60
28548;DHT22;68292;49.600;8.746;2023-08-06T07:22:05;22.70;58.60
28548;DHT22;68292;49.600;8.746;2023-08-06T07:24:34;22.70;58.50
28548;DHT22;68292;49.600;8.746;2023-08-06T07:27:02;22.70;58.50
28548;DHT22;68292;49.600;8.746;2023-08-06T07:29:30;22.70;58.50
28548;DHT22;68292;49.600;8.746;2023-08-06T07:31:58;22.70;59.10
28548;DHT22;68292;49.600;8.746;2023-08-06T07:34:28;22.70;59.20
28548;DHT22;68292;49.600;8.746;2023-08-06T07:36:56;22.70;58.60
28548;DHT22;68292;49.600;8.746;2023-08-06T07:39:24;22.70;58.60
28548;DHT22;68292;49.600;8.746;2023-08-06T07:41:52;22.60;58.50
28548;DHT22;68292;49.600;8.746;2023-08-06T07:44:20;22.60;58.60
28548;DHT22;68292;49.600;8.746;2023-08-06T07:46:49;22.60;58.60
28548;DHT22;68292;49.600;8.746;2023-08-06T07:49:17;22.60;58.70
28548;DHT22;68292;49.600;8.746;2023-08-06T07:51:46;22.60;58.70
28548;DHT22;68292;49.600;8.746;2023-08-06T07:54:14;22.60;58.70
28548;DHT22;68292;49.600;8.746;2023-08-06T07:56:42;22.60;58.70
28548;DHT22;68292;49.600;8.746;2023-08-06T07:59:10;22.60;58.70
28548;DHT22;68292;49.600;8.746;2023-08-06T08:01:38;22.60;58.80
28548;DHT22;68292;49.600;8.746;2023-08-06T08:04:06;22.60;58.80
28548;DHT22;68292;49.600;8.746;2023-08-06T08:06:34;22.60;58.80
28548;DHT22;68292;49.600;8.746;2023-08-06T08:09:04;22.60;58.90
28548;DHT22;68292;49.600;8.746;2023-08-06T08:11:32;22.60;58.90
28548;DHT22;68292;49.600;8.746;2023-08-06T08:14:00;22.60;58.90
28548;DHT22;68292;49.600;8.746;2023-08-06T08:16:29;22.60;59.00
28548;DHT22;68292;49.600;8.746;2023-08-06T08:18:57;22.60;59.10
28548;DHT22;68292;49.600;8.746;2023-08-06T08:21:25;22.70;59.10
28548;DHT22;68292;49.600;8.746;2023-08-06T08:23:53;22.60;59.10
28548;DHT22;68292;49.600;8.746;2023-08-06T08:26:23;22.60;59.10
28548;DHT22;68292;49.600;8.746;2023-08-06T08:28:54;22.60;59.10
28548;DHT22;68292;49.600;8.746;2023-08-06T08:31:22;22.70;59.20
28548;DHT22;68292;49.600;8.746;2023-08-06T08:33:52;22.70;59.20
28548;DHT22;68292;49.600;8.746;2023-08-06T08:36:22;22.60;59.30
28548;DHT22;68292;49.600;8.746;2023-08-06T08:38:50;22.70;59.40
28548;DHT22;68292;49.600;8.746;2023-08-06T08:41:20;22.70;60.00
28548;DHT22;68292;49.600;8.746;2023-08-06T08:43:50;22.70;59.30
28548;DHT22;68292;49.600;8.746;2023-08-06T08:46:19;22.70;59.40
28548;DHT22;68292;49.600;8.746;2023-08-06T08:48:48;22.70;59.40
28548;DHT22;68292;49.600;8.746;2023-08-06T08:51:17;22.70;59.50
28548;DHT22;68292;49.600;8.746;2023-08-06T08:53:46;22.70;59.50
28548;DHT22;68292;49.600;8.746;2023-08-06T08:56:16;22.70;59.50
28548;DHT22;68292;49.600;8.746;2023-08-06T08:58:44;22.70;59.50
28548;DHT22;68292;49.600;8.746;2023-08-06T09:01:14;22.70;59.50
28548;DHT22;68292;49.600;8.746;2023-08-06T09:03:43;22.80;59.60
28548;DHT22;68292;49.600;8.746;2023-08-06T09:06:12;22.70;59.50
28548;DHT22;68292;49.600;8.746;2023-08-06T09:08:43;22.70;59.60
28548;DHT22;68292;49.600;8.746;2023-08-06T09:11:15;22.80;59.70
28548;DHT22;68292;49.600;8.746;2023-08-06T09:13:44;22.80;59.70
28548;DHT22;68292;49.600;8.746;2023-08-06T09:16:14;22.80;59.70
28548;DHT22;68292;49.600;8.746;2023-08-06T09:18:42;22.80;59.70
28548;DHT22;68292;49.600;8.746;2023-08-06T09:21:13;22.80;59.70
28548;DHT22;68292;49.600;8.746;2023-08-06T09:23:42;22.80;59.90
28548;DHT22;68292;49.600;8.746;2023-08-06T09:26:14;22.80;59.80
28548;DHT22;68292;49.600;8.746;2023-08-06T09:28:42;22.80;59.90
28548;DHT22;68292;49.600;8.746;2023-08-06T09:31:11;22.80;59.80
28548;DHT22;68292;49.600;8.746;2023-08-06T09:33:41;22.80;59.90
28548;DHT22;68292;49.600;8.746;2023-08-06T09:36:11;22.80;60.00
28548;DHT22;68292;49.600;8.746;2023-08-06T09:38:40;22.80;60.10
28548;DHT22;68292;49.600;8.746;2023-08-06T09:41:08;22.80;60.10
28548;DHT22;68292;49.600;8.746;2023-08-06T09:43:40;22.90;60.20
28548;DHT22;68292;49.600;8.746;2023-08-06T09:46:13;22.90;60.70
28548;DHT22;68292;49.600;8.746;2023-08-06T09:48:46;22.90;60.70
28548;DHT22;68292;49.600;8.746;2023-08-06T09:51:14;22.90;60.80
28548;DHT22;68292;49.600;8.746;2023-08-06T09:53:44;22.90;60.70
28548;DHT22;68292;49.600;8.746;2023-08-06T09:56:13;22.90;60.70
28548;DHT22;68292;49.600;8.746;2023-08-06T09:58:44;22.90;60.50
28548;DHT22;68292;49.600;8.746;2023-08-06T10:01:14;22.90;60.60
28548;DHT22;68292;49.600;8.746;2023-08-06T10:03:43;22.90;60.70
28548;DHT22;68292;49.600;8.746;2023-08-06T10:06:13;22.90;60.80
28548;DHT22;68292;49.600;8.746;2023-08-06T10:08:41;22.90;60.70
28548;DHT22;68292;49.600;8.746;2023-08-06T10:11:09;22.90;60.80
28548;DHT22;68292;49.600;8.746;2023-08-06T10:13:39;22.90;60.80
28548;DHT22;68292;49.600;8.746;2023-08-06T10:16:07;22.90;60.60
28548;DHT22;68292;49.600;8.746;2023-08-06T10:18:37;22.90;60.60
28548;DHT22;68292;49.600;8.746;2023-08-06T10:21:09;22.90;60.60
28548;DHT22;68292;49.600;8.746;2023-08-06T10:23:40;22.90;60.60
28548;DHT22;68292;49.600;8.746;2023-08-06T10:26:08;22.90;60.60
28548;DHT22;68292;49.600;8.746;2023-08-06T10:28:38;22.90;60.30
28548;DHT22;68292;49.600;8.746;2023-08-06T10:31:07;22.90;60.40
28548;DHT22;68292;49.600;8.746;2023-08-06T10:33:43;22.90;60.40
28548;DHT22;68292;49.600;8.746;2023-08-06T10:36:14;22.90;60.60
28548;DHT22;68292;49.600;8.746;2023-08-06T10:38:47;22.90;60.30
28548;DHT22;68292;49.600;8.746;2023-08-06T10:41:16;22.90;60.70
28548;DHT22;68292;49.600;8.746;2023-08-06T10:43:50;22.90;60.40
28548;DHT22;68292;49.600;8.746;2023-08-06T10:46:23;22.90;60.50
28548;DHT22;68292;49.600;8.746;2023-08-06T10:48:54;22.90;60.90
28548;DHT22;68292;49.600;8.746;2023-08-06T10:51:24;23.00;60.80
28548;DHT22;68292;49.600;8.746;2023-08-06T10:53:55;22.90;60.80
28548;DHT22;68292;49.600;8.746;2023-08-06T10:56:25;22.90;60.60
28548;DHT22;68292;49.600;8.746;2023-08-06T10:58:55;22.90;60.50
28548;DHT22;68292;49.600;8.746;2023-08-06T11:01:24;22.90;60.50
28548;DHT22;68292;49.600;8.746;2023-08-06T11:04:02;22.90;60.60
28548;DHT22;68292;49.600;8.746;2023-08-06T11:06:33;22.90;60.80
28548;DHT22;68292;49.600;8.746;2023-08-06T11:09:01;22.90;60.40
28548;DHT22;68292;49.600;8.746;2023-08-06T11:11:29;22.90;60.40
28548;DHT22;68292;49.600;8.746;2023-08-06T11:13:58;22.90;60.40
28548;DHT22;68292;49.600;8.746;2023-08-06T11:16:26;22.90;60.40
28548;DHT22;68292;49.600;8.746;2023-08-06T11:18:55;22.90;60.30
28548;DHT22;68292;49.600;8.746;2023-08-06T11:21:24;22.90;60.20
28548;DHT22;68292;49.600;8.746;2023-08-06T11:23:54;22.90;60.20
28548;DHT22;68292;49.600;8.746;2023-08-06T11:26:22;22.90;60.00
28548;DHT22;68292;49.600;8.746;2023-08-06T11:28:51;22.90;60.00
28548;DHT22;68292;49.600;8.746;2023-08-06T11:31:19;22.90;60.00
28548;DHT22;68292;49.600;8.746;2023-08-06T11:33:50;22.90;60.10
28548;DHT22;68292;49.600;8.746;2023-08-06T11:36:28;22.90;60.10
28548;DHT22;68292;49.600;8.746;2023-08-06T11:38:59;22.90;60.20
28548;DHT22;68292;49.600;8.746;2023-08-06T11:41:27;22.80;60.10
28548;DHT22;68292;49.600;8.746;2023-08-06T11:43:56;22.80;60.10
28548;DHT22;68292;49.600;8.746;2023-08-06T11:46:24;22.80;60.10
28548;DHT22;68292;49.600;8.746;2023-08-06T11:48:53;22.80;60.20
28548;DHT22;68292;49.600;8.746;2023-08-06T11:51:22;22.80;60.30
28548;DHT22;68292;49.600;8.746;2023-08-06T11:53:56;22.80;60.20
28548;DHT22;68292;49.600;8.746;2023-08-06T11:56:27;22.80;60.40
28548;DHT22;68292;49.600;8.746;2023-08-06T11:58:56;22.80;60.30
28548;DHT22;68292;49.600;8.746;2023-08-06T12:01:25;22.80;60.40
28548;DHT22;68292;49.600;8.746;2023-08-06T12:03:58;22.80;60.40
28548;DHT22;68292;49.600;8.746;2023-08-06T12:06:27;22.80;60.60
28548;DHT22;68292;49.600;8.746;2023-08-06T12:08:55;22.80;60.40
28548;DHT22;68292;49.600;8.746;2023-08-06T12:11:23;22.80;60.30
28548;DHT22;68292;49.600;8.746;2023-08-06T12:13:54;22.80;60.40
28548;DHT22;68292;49.600;8.746;2023-08-06T12:16:23;22.80;59.80
28548;DHT22;68292;49.600;8.746;2023-08-06T12:18:51;22.80;59.80
28548;DHT22;68292;49.600;8.746;2023-08-06T12:21:19;22.80;59.80
28548;DHT22;68292;49.600;8.746;2023-08-06T12:23:47;22.80;59.90
28548;DHT22;68292;49.600;8.746;2023-08-06T12:26:15;22.80;59.70
28548;DHT22;68292;49.600;8.746;2023-08-06T12:28:43;22.80;59.70
28548;DHT22;68292;49.600;8.746;2023-08-06T12:31:13;22.80;59.70
28548;DHT22;68292;49.600;8.746;2023-08-06T12:33:41;22.80;59.50
28548;DHT22;68292;49.600;8.746;2023-08-06T12:36:09;22.80;59.60
28548;DHT22;68292;49.600;8.746;2023-08-06T12:38:37;22.80;59.60
28548;DHT22;68292;49.600;8.746;2023-08-06T12:41:05;22.80;59.70
28548;DHT22;68292;49.600;8.746;2023-08-06T12:43:33;22.80;59.70
28548;DHT22;68292;49.600;8.746;2023-08-06T12:46:01;22.80;59.60
28548;DHT22;68292;49.600;8.746;2023-08-06T12:48:31;22.80;59.50
28548;DHT22;68292;49.600;8.746;2023-08-06T12:50:59;22.80;59.40
28548;DHT22;68292;49.600;8.746;2023-08-06T12:53:27;22.80;59.40
28548;DHT22;68292;49.600;8.746;2023-08-06T12:55:55;22.80;59.40
28548;DHT22;68292;49.600;8.746;2023-08-06T12:58:23;22.80;59.30
28548;DHT22;68292;49.600;8.746;2023-08-06T13:00:51;22.80;59.10
28548;DHT22;68292;49.600;8.746;2023-08-06T13:03:21;22.80;59.90
28548;DHT22;68292;49.600;8.746;2023-08-06T13:05:50;22.80;59.10
28548;DHT22;68292;49.600;8.746;2023-08-06T13:08:18;22.80;59.10
28548;DHT22;68292;49.600;8.746;2023-08-06T13:10:46;22.80;58.90
28548;DHT22;68292;49.600;8.746;2023-08-06T13:13:14;22.80;59.00
28548;DHT22;68292;49.600;8.746;2023-08-06T13:15:42;22.80;59.00
28548;DHT22;68292;49.600;8.746;2023-08-06T13:18:11;22.80;58.90
28548;DHT22;68292;49.600;8.746;2023-08-06T13:20:39;22.80;59.00
28548;DHT22;68292;49.600;8.746;2023-08-06T13:23:09;22.80;58.80
28548;DHT22;68292;49.600;8.746;2023-08-06T13:25:37;22.80;58.80
28548;DHT22;68292;49.600;8.746;2023-08-06T13:28:05;22.80;59.00
28548;DHT22;68292;49.600;8.746;2023-08-06T13:30:33;22.80;59.00
28548;DHT22;68292;49.600;8.746;2023-08-06T13:33:08;22.80;59.10
28548;DHT22;68292;49.600;8.746;2023-08-06T13:35:36;22.80;59.20
28548;DHT22;68292;49.600;8.746;2023-08-06T13:38:05;22.80;59.10
28548;DHT22;68292;49.600;8.746;2023-08-06T13:40:35;22.80;59.30
28548;DHT22;68292;49.600;8.746;2023-08-06T13:43:03;22.80;59.30
28548;DHT22;68292;49.600;8.746;2023-08-06T13:45:31;22.80;59.40
28548;DHT22;68292;49.600;8.746;2023-08-06T13:48:01;22.80;59.40
28548;DHT22;68292;49.600;8.746;2023-08-06T13:50:30;22.80;59.40
28548;DHT22;68292;49.600;8.746;2023-08-06T13:52:58;22.80;59.40
28548;DHT22;68292;49.600;8.746;2023-08-06T13:55:27;22.80;59.50
28548;DHT22;68292;49.600;8.746;2023-08-06T13:57:56;22.80;59.40
28548;DHT22;68292;49.600;8.746;2023-08-06T14:00:24;22.80;59.30
28548;DHT22;68292;49.600;8.746;2023-08-06T14:02:53;22.80;59.30
28548;DHT22;68292;49.600;8.746;2023-08-06T14:05:21;22.80;60.00
28548;DHT22;68292;49.600;8.746;2023-08-06T14:07:49;22.80;59.20
28548;DHT22;68292;49.600;8.746;2023-08-06T14:10:17;22.80;59.10
28548;DHT22;68292;49.600;8.746;2023-08-06T14:12:45;22.80;59.20
28548;DHT22;68292;49.600;8.746;2023-08-06T14:15:32;22.80;59.10
28548;DHT22;68292;49.600;8.746;2023-08-06T14:18:00;22.80;59.10
28548;DHT22;68292;49.600;8.746;2023-08-06T14:20:29;22.80;59.10
28548;DHT22;68292;49.600;8.746;2023-08-06T14:22:57;22.80;59.00
28548;DHT22;68292;49.600;8.746;2023-08-06T14:25:25;22.80;59.00
28548;DHT22;68292;49.600;8.746;2023-08-06T14:27:53;22.80;59.00
28548;DHT22;68292;49.600;8.746;2023-08-06T14:30:21;22.90;59.10
28548;DHT22;68292;49.600;8.746;2023-08-06T14:32:51;22.80;59.00
28548;DHT22;68292;49.600;8.746;2023-08-06T14:35:19;22.90;59.00
28548;DHT22;68292;49.600;8.746;2023-08-06T14:37:47;22.80;59.00
28548;DHT22;68292;49.600;8.746;2023-08-06T14:40:15;22.80;59.00
28548;DHT22;68292;49.600;8.746;2023-08-06T14:42:43;22.80;59.00
28548;DHT22;68292;49.600;8.746;2023-08-06T14:45:11;22.80;59.00
28548;DHT22;68292;49.600;8.746;2023-08-06T14:47:39;22.80;59.00
28548;DHT22;68292;49.600;8.746;2023-08-06T14:50:09;22.80;58.90
28548;DHT22;68292;49.600;8.746;2023-08-06T14:52:37;22.80;59.00
28548;DHT22;68292;49.600;8.746;2023-08-06T14:55:06;22.90;59.10
28548;DHT22;68292;49.600;8.746;2023-08-06T14:57:35;22.80;58.90
28548;DHT22;68292;49.600;8.746;2023-08-06T15:00:03;22.80;58.80
28548;DHT22;68292;49.600;8.746;2023-08-06T15:02:33;22.80;58.80
28548;DHT22;68292;49.600;8.746;2023-08-06T15:05:01;22.90;58.70
28548;DHT22;68292;49.600;8.746;2023-08-06T15:07:31;22.80;58.70
28548;DHT22;68292;49.600;8.746;2023-08-06T15:10:02;22.80;58.60
28548;DHT22;68292;49.600;8.746;2023-08-06T15:12:50;22.80;58.60
28548;DHT22;68292;49.600;8.746;2023-08-06T15:15:18;22.90;58.60
28548;DHT22;68292;49.600;8.746;2023-08-06T15:17:46;22.80;58.60
28548;DHT22;68292;49.600;8.746;2023-08-06T15:20:14;22.80;58.70
28548;DHT22;68292;49.600;8.746;2023-08-06T15:22:44;22.90;58.80
28548;DHT22;68292;49.600;8.746;2023-08-06T15:25:12;22.80;58.70
28548;DHT22;68292;49.600;8.746;2023-08-06T15:27:40;22.80;58.90
28548;DHT22;68292;49.600;8.746;2023-08-06T15:30:09;22.80;58.80
28548;DHT22;68292;49.600;8.746;2023-08-06T15:32:38;22.80;58.90
28548;DHT22;68292;49.600;8.746;2023-08-06T15:35:11;22.80;58.90
28548;DHT22;68292;49.600;8.746;2023-08-06T15:37:39;22.80;59.00
28548;DHT22;68292;49.600;8.746;2023-08-06T15:40:10;22.80;59.00
28548;DHT22;68292;49.600;8.746;2023-08-06T15:42:39;22.80;59.00